createdAt,value
2023-02-11T00:00:02.924Z,1004.85
2023-02-11T00:01:02.922Z,1004.87
2023-02-11T00:02:02.972Z,1004.90
2023-02-11T00:03:02.906Z,1004.90
2023-02-11T00:04:02.904Z,1004.85
2023-02-11T00:05:02.876Z,1004.87
2023-02-11T00:06:02.867Z,1004.79
2023-02-11T00:07:02.894Z,1004.86
2023-02-11T00:08:02.845Z,1004.83
2023-02-11T00:09:02.853Z,1004.88
2023-02-11T00:10:02.833Z,1004.88
2023-02-11T00:11:02.814Z,1004.90
2023-02-11T00:12:02.803Z,1004.89
2023-02-11T00:13:02.798Z,1004.88
2023-02-11T00:14:02.825Z,1004.87
2023-02-11T00:15:02.780Z,1004.88
2023-02-11T00:16:02.759Z,1004.85
2023-02-11T00:17:02.821Z,1004.82
2023-02-11T00:18:02.742Z,1004.85
2023-02-11T00:19:02.734Z,1004.81
2023-02-11T00:20:02.761Z,1004.86
2023-02-11T00:21:02.714Z,1004.82
2023-02-11T00:22:02.694Z,1004.88
2023-02-11T00:23:02.714Z,1004.80
2023-02-11T00:24:02.689Z,1004.79
2023-02-11T00:25:02.680Z,1004.73
2023-02-11T00:26:02.668Z,1004.73
2023-02-11T00:27:02.651Z,1004.80
2023-02-11T00:28:02.682Z,1004.74
2023-02-11T00:29:02.646Z,1004.80
2023-02-11T00:30:02.619Z,1004.71
2023-02-11T00:31:02.793Z,1004.70
2023-02-11T00:32:02.663Z,1004.70
2023-02-11T00:33:02.601Z,1004.66
2023-02-11T00:34:02.584Z,1004.65
2023-02-11T00:35:02.575Z,1004.68
2023-02-11T00:36:02.559Z,1004.68
2023-02-11T00:37:02.544Z,1004.64
2023-02-11T00:38:02.536Z,1004.65
2023-02-11T00:39:02.538Z,1004.73
2023-02-11T00:40:05.045Z,1004.71
2023-02-11T00:41:02.502Z,1004.70
2023-02-11T00:42:02.491Z,1004.68
2023-02-11T00:43:02.480Z,1004.65
2023-02-11T00:44:02.481Z,1004.70
2023-02-11T00:45:02.484Z,1004.61
2023-02-11T00:46:02.468Z,1004.66
2023-02-11T00:47:02.440Z,1004.68
2023-02-11T00:48:02.418Z,1004.75
2023-02-11T00:49:02.423Z,1004.74
2023-02-11T00:50:02.407Z,1004.77
2023-02-11T00:51:02.404Z,1004.74
2023-02-11T00:52:02.389Z,1004.76
2023-02-11T00:53:02.377Z,1004.78
2023-02-11T00:54:02.370Z,1004.79
2023-02-11T00:55:02.366Z,1004.83
2023-02-11T00:56:02.360Z,1004.75
2023-02-11T00:57:02.330Z,1004.80
2023-02-11T00:58:02.318Z,1004.75
2023-02-11T00:59:02.334Z,1004.68
2023-02-11T01:00:02.302Z,1004.77
2023-02-11T01:01:02.325Z,1004.71
2023-02-11T01:02:02.288Z,1004.70
2023-02-11T01:03:02.279Z,1004.67
2023-02-11T01:04:02.281Z,1004.65
2023-02-11T01:05:02.353Z,1004.60
2023-02-11T01:06:02.257Z,1004.64
2023-02-11T01:07:02.239Z,1004.63
2023-02-11T01:08:02.212Z,1004.56
2023-02-11T01:09:02.232Z,1004.62
2023-02-11T01:10:02.198Z,1004.58
2023-02-11T01:11:02.196Z,1004.50
2023-02-11T01:12:02.193Z,1004.49
2023-02-11T01:13:02.174Z,1004.32
2023-02-11T01:14:02.167Z,1004.45
2023-02-11T01:15:02.168Z,1004.32
2023-02-11T01:16:02.197Z,1004.36
2023-02-11T01:17:02.157Z,1004.37
2023-02-11T01:18:02.114Z,1004.36
2023-02-11T01:19:02.116Z,1004.35
2023-02-11T01:20:02.116Z,1004.29
2023-02-11T01:21:02.087Z,1004.27
2023-02-11T01:22:02.075Z,1004.31
2023-02-11T01:23:02.074Z,1004.28
2023-02-11T01:24:02.067Z,1004.26
2023-02-11T01:25:02.064Z,1004.24
2023-02-11T01:26:02.035Z,1004.23
2023-02-11T01:27:02.031Z,1004.26
2023-02-11T01:28:02.057Z,1004.19
2023-02-11T01:29:02.011Z,1004.24
2023-02-11T01:30:02.018Z,1004.20
2023-02-11T01:31:02.043Z,1004.16
2023-02-11T01:32:02.004Z,1004.19
2023-02-11T01:33:01.992Z,1004.15
2023-02-11T01:34:02.006Z,1004.12
2023-02-11T01:35:01.955Z,1004.15
2023-02-11T01:36:01.945Z,1004.15
2023-02-11T01:37:01.950Z,1004.17
2023-02-11T01:38:01.928Z,1004.16
2023-02-11T01:39:01.906Z,1004.19
2023-02-11T01:40:01.906Z,1004.16
2023-02-11T01:41:01.890Z,1004.12
2023-02-11T01:42:01.879Z,1004.17
2023-02-11T01:43:01.865Z,1004.15
2023-02-11T01:44:01.869Z,1004.19
2023-02-11T01:45:01.861Z,1004.19
2023-02-11T01:46:01.887Z,1004.17
2023-02-11T01:47:01.836Z,1004.12
2023-02-11T01:48:01.809Z,1004.18
2023-02-11T01:49:01.847Z,1004.08
2023-02-11T01:50:01.826Z,1004.13
2023-02-11T01:51:01.778Z,1004.15
2023-02-11T01:52:01.775Z,1004.19
2023-02-11T01:53:01.756Z,1004.17
2023-02-11T01:54:01.789Z,1004.22
2023-02-11T01:55:01.749Z,1004.19
2023-02-11T01:56:01.727Z,1004.21
2023-02-11T01:57:01.717Z,1004.17
2023-02-11T01:58:01.707Z,1004.18
2023-02-11T01:59:01.708Z,1004.23
2023-02-11T02:00:01.754Z,1004.18
2023-02-11T02:01:01.676Z,1004.19
2023-02-11T02:02:01.768Z,1004.17
2023-02-11T02:03:01.667Z,1004.15
2023-02-11T02:04:01.726Z,1004.21
2023-02-11T02:05:01.678Z,1004.16
2023-02-11T02:06:01.626Z,1004.14
2023-02-11T02:07:01.620Z,1004.04
2023-02-11T02:08:01.596Z,1004.06
2023-02-11T02:09:01.595Z,1004.02
2023-02-11T02:10:01.576Z,1004.00
2023-02-11T02:11:01.585Z,1003.99
2023-02-11T02:12:01.557Z,1004.01
2023-02-11T02:13:01.568Z,1004.01
2023-02-11T02:14:01.566Z,1003.96
2023-02-11T02:15:01.524Z,1004.04
2023-02-11T02:16:01.637Z,1004.04
2023-02-11T02:17:01.537Z,1004.11
2023-02-11T02:18:01.548Z,1004.04
2023-02-11T02:19:01.484Z,1004.06
2023-02-11T02:20:01.474Z,1004.02
2023-02-11T02:21:01.470Z,1003.98
2023-02-11T02:22:01.471Z,1004.04
2023-02-11T02:23:01.460Z,1003.98
2023-02-11T02:24:01.439Z,1004.07
2023-02-11T02:25:01.428Z,1004.02
2023-02-11T02:26:01.410Z,1003.98
2023-02-11T02:27:01.418Z,1003.92
2023-02-11T02:28:01.436Z,1003.93
2023-02-11T02:29:01.385Z,1003.96
2023-02-11T02:30:01.386Z,1003.94
2023-02-11T02:31:01.475Z,1003.92
2023-02-11T02:32:01.346Z,1003.99
2023-02-11T02:33:07.953Z,1003.91
2023-02-11T02:34:02.335Z,1003.93
2023-02-11T02:35:01.328Z,1003.92
2023-02-11T02:36:01.312Z,1003.90
2023-02-11T02:37:01.317Z,1003.94
2023-02-11T02:38:01.289Z,1003.91
2023-02-11T02:39:01.280Z,1003.92
2023-02-11T02:40:01.292Z,1003.90
2023-02-11T02:41:01.258Z,1003.87
2023-02-11T02:42:01.255Z,1003.90
2023-02-11T02:43:01.238Z,1003.82
2023-02-11T02:44:01.226Z,1003.83
2023-02-11T02:45:01.227Z,1003.78
2023-02-11T02:46:01.208Z,1003.76
2023-02-11T02:47:01.256Z,1003.71
2023-02-11T02:48:01.179Z,1003.72
2023-02-11T02:49:01.189Z,1003.68
2023-02-11T02:50:01.169Z,1003.59
2023-02-11T02:51:01.162Z,1003.60
2023-02-11T02:52:01.159Z,1003.61
2023-02-11T02:53:01.140Z,1003.55
2023-02-11T02:54:01.120Z,1003.54
2023-02-11T02:55:01.120Z,1003.54
2023-02-11T02:56:01.110Z,1003.57
2023-02-11T02:57:01.106Z,1003.53
2023-02-11T02:58:01.140Z,1003.60
2023-02-11T02:59:01.083Z,1003.62
2023-02-11T03:00:01.063Z,1003.68
2023-02-11T03:01:01.145Z,1003.68
2023-02-11T03:02:01.064Z,1003.63
2023-02-11T03:03:01.053Z,1003.71
2023-02-11T03:04:01.128Z,1003.66
2023-02-11T03:05:01.011Z,1003.63
2023-02-11T03:06:01.004Z,1003.58
2023-02-11T03:07:00.991Z,1003.60
2023-02-11T03:08:00.982Z,1003.65
2023-02-11T03:09:00.980Z,1003.56
2023-02-11T03:10:00.961Z,1003.53
2023-02-11T03:11:00.972Z,1003.52
2023-02-11T03:12:00.958Z,1003.48
2023-02-11T03:13:00.937Z,1003.50
2023-02-11T03:14:00.923Z,1003.48
2023-02-11T03:15:00.920Z,1003.48
2023-02-11T03:16:00.936Z,1003.46
2023-02-11T03:17:00.893Z,1003.45
2023-02-11T03:18:00.872Z,1003.45
2023-02-11T03:19:00.872Z,1003.45
2023-02-11T03:20:00.854Z,1003.47
2023-02-11T03:21:00.886Z,1003.47
2023-02-11T03:22:00.831Z,1003.44
2023-02-11T03:23:00.830Z,1003.50
2023-02-11T03:24:00.814Z,1003.40
2023-02-11T03:25:00.801Z,1003.39
2023-02-11T03:26:00.801Z,1003.39
2023-02-11T03:27:00.783Z,1003.34
2023-02-11T03:28:00.841Z,1003.35
2023-02-11T03:29:00.781Z,1003.41
2023-02-11T03:30:00.771Z,1003.39
2023-02-11T03:31:00.791Z,1003.39
2023-02-11T03:32:00.772Z,1003.34
2023-02-11T03:33:00.755Z,1003.38
2023-02-11T03:34:00.721Z,1003.38
2023-02-11T03:35:00.709Z,1003.39
2023-02-11T03:36:00.709Z,1003.49
2023-02-11T03:37:00.680Z,1003.44
2023-02-11T03:38:00.704Z,1003.42
2023-02-11T03:39:00.661Z,1003.44
2023-02-11T03:40:00.653Z,1003.44
2023-02-11T03:41:00.643Z,1003.43
2023-02-11T03:42:00.666Z,1003.44
2023-02-11T03:43:00.621Z,1003.47
2023-02-11T03:44:00.614Z,1003.43
2023-02-11T03:45:00.614Z,1003.43
2023-02-11T03:46:00.621Z,1003.47
2023-02-11T03:47:00.573Z,1003.53
2023-02-11T03:48:00.590Z,1003.43
2023-02-11T03:49:00.553Z,1003.40
2023-02-11T03:50:00.559Z,1003.42
2023-02-11T03:51:00.551Z,1003.35
2023-02-11T03:52:00.533Z,1003.35
2023-02-11T03:53:00.541Z,1003.34
2023-02-11T03:54:00.512Z,1003.32
2023-02-11T03:55:00.503Z,1003.32
2023-02-11T03:56:00.512Z,1003.46
2023-02-11T03:57:00.508Z,1003.44
2023-02-11T03:58:00.482Z,1003.44
2023-02-11T03:59:00.454Z,1003.46
2023-02-11T04:00:00.444Z,1003.40
2023-02-11T04:01:00.494Z,1003.46
2023-02-11T04:02:00.434Z,1003.45
2023-02-11T04:03:00.437Z,1003.48
2023-02-11T04:04:00.434Z,1003.55
2023-02-11T04:05:00.394Z,1003.49
2023-02-11T04:06:00.396Z,1003.55
2023-02-11T04:07:00.409Z,1003.55
2023-02-11T04:08:00.366Z,1003.54
2023-02-11T04:09:00.372Z,1003.60
2023-02-11T04:10:00.344Z,1003.59
2023-02-11T04:11:00.337Z,1003.60
2023-02-11T04:12:00.328Z,1003.65
2023-02-11T04:13:00.311Z,1003.63
2023-02-11T04:14:00.383Z,1003.70
2023-02-11T04:15:00.297Z,1003.62
2023-02-11T04:16:00.376Z,1003.56
2023-02-11T04:17:00.263Z,1003.55
2023-02-11T04:18:00.264Z,1003.59
2023-02-11T04:19:00.246Z,1003.57
2023-02-11T04:20:00.266Z,1003.56
2023-02-11T04:21:00.238Z,1003.58
2023-02-11T04:22:00.231Z,1003.64
2023-02-11T04:23:00.212Z,1003.60
2023-02-11T04:24:00.205Z,1003.64
2023-02-11T04:25:00.203Z,1003.69
2023-02-11T04:26:00.186Z,1003.61
2023-02-11T04:27:00.172Z,1003.58
2023-02-11T04:28:00.221Z,1003.60
2023-02-11T04:29:00.145Z,1003.64
2023-02-11T04:30:00.176Z,1003.59
2023-02-11T04:31:00.192Z,1003.59
2023-02-11T04:32:00.166Z,1003.64
2023-02-11T04:33:00.119Z,1003.61
2023-02-11T04:34:00.135Z,1003.60
2023-02-11T04:35:00.127Z,1003.63
2023-02-11T04:36:00.090Z,1003.62
2023-02-11T04:37:00.063Z,1003.63
2023-02-11T04:38:00.064Z,1003.63
2023-02-11T04:39:00.052Z,1003.64
2023-02-11T04:40:00.057Z,1003.65
2023-02-11T04:41:00.024Z,1003.61
2023-02-11T04:42:00.016Z,1003.66
2023-02-11T04:43:00.016Z,1003.63
2023-02-11T04:43:59.994Z,1003.59
2023-02-11T04:45:00.002Z,1003.62
2023-02-11T04:46:00.041Z,1003.55
2023-02-11T04:46:59.968Z,1003.47
2023-02-11T04:47:59.976Z,1003.49
2023-02-11T04:48:59.936Z,1003.35
2023-02-11T04:49:59.965Z,1003.34
2023-02-11T04:50:59.915Z,1003.33
2023-02-11T04:51:59.916Z,1003.40
2023-02-11T04:52:59.899Z,1003.41
2023-02-11T04:53:59.889Z,1003.46
2023-02-11T04:54:59.885Z,1003.44
2023-02-11T04:55:59.867Z,1003.47
2023-02-11T04:56:59.869Z,1003.45
2023-02-11T04:57:59.940Z,1003.51
2023-02-11T04:58:59.835Z,1003.60
2023-02-11T04:59:59.837Z,1003.53
2023-02-11T05:00:59.839Z,1003.55
2023-02-11T05:01:59.825Z,1003.52
2023-02-11T05:02:59.796Z,1003.43
2023-02-11T05:03:59.822Z,1003.47
2023-02-11T05:04:59.779Z,1003.44
2023-02-11T05:05:59.766Z,1003.46
2023-02-11T05:06:59.757Z,1003.45
2023-02-11T05:07:59.747Z,1003.46
2023-02-11T05:08:59.731Z,1003.46
2023-02-11T05:09:59.745Z,1003.38
2023-02-11T05:10:59.720Z,1003.41
2023-02-11T05:11:59.707Z,1003.34
2023-02-11T05:12:59.688Z,1003.32
2023-02-11T05:13:59.695Z,1003.21
2023-02-11T05:14:59.685Z,1003.21
2023-02-11T05:15:59.679Z,1003.21
2023-02-11T05:16:59.675Z,1003.16
2023-02-11T05:17:59.675Z,1003.09
2023-02-11T05:18:59.626Z,1003.02
2023-02-11T05:19:59.635Z,1003.03
2023-02-11T05:20:59.605Z,1003.02
2023-02-11T05:22:03.203Z,1003.01
2023-02-11T05:22:59.585Z,1002.92
2023-02-11T05:23:59.584Z,1002.92
2023-02-11T05:24:59.568Z,1002.89
2023-02-11T05:25:59.564Z,1002.93
2023-02-11T05:26:59.558Z,1002.99
2023-02-11T05:27:59.567Z,1002.93
2023-02-11T05:28:59.527Z,1002.96
2023-02-11T05:29:59.525Z,1002.95
2023-02-11T05:30:59.575Z,1002.89
2023-02-11T05:31:59.519Z,1002.86
2023-02-11T05:32:59.625Z,1002.88
2023-02-11T05:33:59.497Z,1002.89
2023-02-11T05:34:59.476Z,1002.96
2023-02-11T05:35:59.475Z,1002.97
2023-02-11T05:36:59.505Z,1002.98
2023-02-11T05:37:59.481Z,1002.96
2023-02-11T05:39:00.121Z,1002.95
2023-02-11T05:39:59.424Z,1002.92
2023-02-11T05:40:59.502Z,1002.91
2023-02-11T05:41:59.416Z,1002.91
2023-02-11T05:42:59.447Z,1002.97
2023-02-11T05:43:59.404Z,1003.01
2023-02-11T05:44:59.366Z,1002.95
2023-02-11T05:45:59.392Z,1002.93
2023-02-11T05:46:59.354Z,1002.92
2023-02-11T05:47:59.337Z,1002.96
2023-02-11T05:48:59.319Z,1002.92
2023-02-11T05:49:59.326Z,1002.99
2023-02-11T05:50:59.299Z,1003.00
2023-02-11T05:51:59.296Z,1002.96
2023-02-11T05:52:59.279Z,1002.96
2023-02-11T05:53:59.282Z,1002.84
2023-02-11T05:54:59.267Z,1002.80
2023-02-11T05:55:59.417Z,1002.81
2023-02-11T05:56:59.237Z,1002.92
2023-02-11T05:57:59.227Z,1002.96
2023-02-11T05:58:59.226Z,1003.07
2023-02-11T05:59:59.215Z,1003.01
2023-02-11T06:00:59.195Z,1003.05
2023-02-11T06:01:59.187Z,1003.12
2023-02-11T06:02:59.284Z,1003.04
2023-02-11T06:03:59.198Z,1003.06
2023-02-11T06:04:59.164Z,1003.03
2023-02-11T06:05:59.164Z,1003.06
2023-02-11T06:06:59.130Z,1003.12
2023-02-11T06:07:59.155Z,1003.09
2023-02-11T06:08:59.107Z,1003.12
2023-02-11T06:09:59.108Z,1003.19
2023-02-11T06:10:59.093Z,1003.18
2023-02-11T06:11:59.089Z,1003.21
2023-02-11T06:12:59.068Z,1003.19
2023-02-11T06:13:59.086Z,1003.20
2023-02-11T06:14:59.046Z,1003.27
2023-02-11T06:15:59.105Z,1003.24
2023-02-11T06:16:59.029Z,1003.25
2023-02-11T06:17:59.043Z,1003.28
2023-02-11T06:18:59.006Z,1003.32
2023-02-11T06:19:58.998Z,1003.28
2023-02-11T06:20:58.986Z,1003.19
2023-02-11T06:21:58.989Z,1003.15
2023-02-11T06:22:58.966Z,1003.26
2023-02-11T06:23:58.957Z,1003.24
2023-02-11T06:25:01.747Z,1003.22
2023-02-11T06:25:58.938Z,1003.15
2023-02-11T06:26:58.925Z,1003.16
2023-02-11T06:27:58.924Z,1003.05
2023-02-11T06:28:58.918Z,1003.11
2023-02-11T06:29:58.898Z,1003.15
2023-02-11T06:30:58.988Z,1003.09
2023-02-11T06:31:58.959Z,1003.11
2023-02-11T06:32:58.934Z,1003.12
2023-02-11T06:33:58.859Z,1003.10
2023-02-11T06:34:58.845Z,1003.12
2023-02-11T06:35:58.840Z,1003.18
2023-02-11T06:36:58.836Z,1003.15
2023-02-11T06:37:58.823Z,1003.14
2023-02-11T06:38:58.806Z,1003.11
2023-02-11T06:39:58.819Z,1003.09
2023-02-11T06:40:58.794Z,1003.07
2023-02-11T06:41:58.783Z,1003.07
2023-02-11T06:42:58.760Z,1003.17
2023-02-11T06:43:58.750Z,1003.13
2023-02-11T06:44:58.743Z,1003.16
2023-02-11T06:45:58.819Z,1003.18
2023-02-11T06:46:58.733Z,1003.14
2023-02-11T06:47:58.710Z,1003.13
2023-02-11T06:48:58.703Z,1003.18
2023-02-11T06:49:58.691Z,1003.25
2023-02-11T06:50:58.681Z,1003.37
2023-02-11T06:51:58.688Z,1003.29
2023-02-11T06:52:58.661Z,1003.39
2023-02-11T06:53:58.666Z,1003.30
2023-02-11T06:54:58.630Z,1003.25
2023-02-11T06:55:58.673Z,1003.28
2023-02-11T06:56:58.618Z,1003.33
2023-02-11T06:57:58.610Z,1003.34
2023-02-11T06:58:58.623Z,1003.33
2023-02-11T06:59:58.609Z,1003.39
2023-02-11T07:00:58.592Z,1003.38
2023-02-11T07:01:58.635Z,1003.36
2023-02-11T07:02:58.675Z,1003.32
2023-02-11T07:03:58.560Z,1003.33
2023-02-11T07:04:58.530Z,1003.30
2023-02-11T07:05:58.533Z,1003.27
2023-02-11T07:06:58.510Z,1003.29
2023-02-11T07:07:58.531Z,1003.22
2023-02-11T07:08:58.516Z,1003.27
2023-02-11T07:09:58.490Z,1003.20
2023-02-11T07:10:58.478Z,1003.27
2023-02-11T07:11:58.461Z,1003.27
2023-02-11T07:12:58.880Z,1003.29
2023-02-11T07:13:58.446Z,1003.29
2023-02-11T07:14:58.432Z,1003.29
2023-02-11T07:15:58.486Z,1003.33
2023-02-11T07:16:58.427Z,1003.33
2023-02-11T07:17:58.430Z,1003.27
2023-02-11T07:18:58.392Z,1003.35
2023-02-11T07:19:58.378Z,1003.31
2023-02-11T07:20:58.389Z,1003.31
2023-02-11T07:21:58.364Z,1003.27
2023-02-11T07:22:58.350Z,1003.34
2023-02-11T07:23:58.341Z,1003.35
2023-02-11T07:24:58.338Z,1003.24
2023-02-11T07:25:59.040Z,1003.26
2023-02-11T07:26:58.328Z,1003.27
2023-02-11T07:27:59.010Z,1003.22
2023-02-11T07:28:58.295Z,1003.17
2023-02-11T07:29:59.803Z,1003.23
2023-02-11T07:30:58.298Z,1003.25
2023-02-11T07:31:59.048Z,1003.26
2023-02-11T07:32:58.271Z,1003.36
2023-02-11T07:33:58.391Z,1003.45
2023-02-11T07:34:58.722Z,1003.37
2023-02-11T07:35:58.804Z,1003.40
2023-02-11T07:36:58.522Z,1003.37
2023-02-11T07:37:58.221Z,1003.35
2023-02-11T07:38:58.186Z,1003.41
2023-02-11T07:39:58.389Z,1003.41
2023-02-11T07:40:58.201Z,1003.42
2023-02-11T07:41:58.150Z,1003.45
2023-02-11T07:42:58.150Z,1003.46
2023-02-11T07:43:58.128Z,1003.43
2023-02-11T07:44:58.123Z,1003.36
2023-02-11T07:45:58.114Z,1003.33
2023-02-11T07:46:58.205Z,1003.32
2023-02-11T07:47:58.108Z,1003.32
2023-02-11T07:48:58.083Z,1003.35
2023-02-11T07:49:58.071Z,1003.32
2023-02-11T07:50:58.071Z,1003.27
2023-02-11T07:51:58.061Z,1003.35
2023-02-11T07:52:58.043Z,1003.24
2023-02-11T07:53:58.033Z,1003.22
2023-02-11T07:54:58.034Z,1003.18
2023-02-11T07:55:58.001Z,1003.10
2023-02-11T07:56:58.001Z,1003.15
2023-02-11T07:57:57.989Z,1003.09
2023-02-11T07:58:57.979Z,1003.12
2023-02-11T07:59:57.981Z,1003.09
2023-02-11T08:00:57.990Z,1003.08
2023-02-11T08:01:57.998Z,1003.08
2023-02-11T08:02:57.930Z,1003.10
2023-02-11T08:03:57.942Z,1003.03
2023-02-11T08:04:57.914Z,1003.06
2023-02-11T08:05:57.993Z,1003.00
2023-02-11T08:06:59.224Z,1002.95
2023-02-11T08:07:57.880Z,1002.96
2023-02-11T08:08:57.880Z,1002.95
2023-02-11T08:09:57.890Z,1002.92
2023-02-11T08:10:57.858Z,1002.89
2023-02-11T08:11:57.834Z,1002.93
2023-02-11T08:12:57.834Z,1002.93
2023-02-11T08:13:57.833Z,1002.95
2023-02-11T08:14:57.813Z,1002.96
2023-02-11T08:15:57.806Z,1002.99
2023-02-11T08:16:57.794Z,1002.99
2023-02-11T08:17:57.775Z,1003.02
2023-02-11T08:18:57.819Z,1003.06
2023-02-11T08:19:57.750Z,1003.12
2023-02-11T08:20:57.769Z,1003.14
2023-02-11T08:21:57.727Z,1003.19
2023-02-11T08:22:57.728Z,1003.20
2023-02-11T08:23:57.726Z,1003.20
2023-02-11T08:24:57.700Z,1003.26
2023-02-11T08:25:57.694Z,1003.23
2023-02-11T08:26:57.700Z,1003.31
2023-02-11T08:27:57.683Z,1003.35
2023-02-11T08:28:57.677Z,1003.29
2023-02-11T08:29:57.658Z,1003.24
2023-02-11T08:30:57.660Z,1003.24
2023-02-11T08:31:57.633Z,1003.21
2023-02-11T08:32:57.617Z,1003.25
2023-02-11T08:33:57.603Z,1003.28
2023-02-11T08:34:57.598Z,1003.25
2023-02-11T08:35:57.584Z,1003.30
2023-02-11T08:36:57.586Z,1003.31
2023-02-11T08:37:57.557Z,1003.30
2023-02-11T08:39:12.199Z,1003.26
2023-02-11T08:39:58.537Z,1003.21
2023-02-11T08:40:57.527Z,1003.23
2023-02-11T08:41:57.527Z,1003.27
2023-02-11T08:42:57.527Z,1003.16
2023-02-11T08:43:57.504Z,1003.15
2023-02-11T08:44:57.512Z,1003.16
2023-02-11T08:45:59.510Z,1003.19
2023-02-11T08:46:57.487Z,1003.22
2023-02-11T08:47:57.447Z,1003.12
2023-02-11T08:48:57.446Z,1003.08
2023-02-11T08:49:57.448Z,1003.15
2023-02-11T08:50:57.439Z,1003.08
2023-02-11T08:51:57.414Z,1003.07
2023-02-11T08:52:57.470Z,1003.12
2023-02-11T08:53:57.388Z,1003.05
2023-02-11T08:54:57.408Z,1003.03
2023-02-11T08:55:57.367Z,1003.02
2023-02-11T08:56:57.368Z,1002.95
2023-02-11T08:57:57.351Z,1002.98
2023-02-11T08:58:57.549Z,1002.98
2023-02-11T08:59:57.341Z,1002.96
2023-02-11T09:00:57.351Z,1003.00
2023-02-11T09:01:57.388Z,1003.01
2023-02-11T09:02:57.306Z,1003.09
2023-02-11T09:03:57.286Z,1003.12
2023-02-11T09:04:57.283Z,1003.13
2023-02-11T09:05:57.282Z,1003.19
2023-02-11T09:06:57.268Z,1003.16
2023-02-11T09:07:57.259Z,1003.17
2023-02-11T09:08:57.269Z,1003.17
2023-02-11T09:09:57.217Z,1003.18
2023-02-11T09:10:57.208Z,1003.26
2023-02-11T09:11:57.231Z,1003.26
2023-02-11T09:12:57.211Z,1003.26
2023-02-11T09:13:57.195Z,1003.22
2023-02-11T09:14:57.169Z,1003.17
2023-02-11T09:15:57.231Z,1003.19
2023-02-11T09:16:57.172Z,1003.16
2023-02-11T09:17:57.149Z,1003.14
2023-02-11T09:18:57.135Z,1003.13
2023-02-11T09:19:57.117Z,1003.08
2023-02-11T09:20:57.121Z,1003.09
2023-02-11T09:21:57.089Z,1003.04
2023-02-11T09:22:57.095Z,1003.05
2023-02-11T09:23:57.081Z,1003.02
2023-02-11T09:24:57.075Z,1002.95
2023-02-11T09:25:57.059Z,1003.08
2023-02-11T09:26:57.040Z,1003.02
2023-02-11T09:27:57.077Z,1003.04
2023-02-11T09:28:57.029Z,1002.98
2023-02-11T09:29:57.013Z,1002.99
2023-02-11T09:30:57.099Z,1002.92
2023-02-11T09:31:57.134Z,1002.85
2023-02-11T09:32:56.991Z,1002.85
2023-02-11T09:33:56.981Z,1002.91
2023-02-11T09:34:56.961Z,1002.87
2023-02-11T09:35:56.930Z,1002.85
2023-02-11T09:36:56.949Z,1002.84
2023-02-11T09:37:56.925Z,1002.88
2023-02-11T09:38:56.912Z,1002.87
2023-02-11T09:39:56.905Z,1002.82
2023-02-11T09:40:56.903Z,1002.82
2023-02-11T09:41:56.893Z,1002.86
2023-02-11T09:43:01.724Z,1002.90
2023-02-11T09:43:57.851Z,1002.88
2023-02-11T09:44:56.852Z,1002.92
2023-02-11T09:45:56.870Z,1002.98
2023-02-11T09:46:56.857Z,1002.97
2023-02-11T09:47:56.812Z,1003.00
2023-02-11T09:48:56.811Z,1002.98
2023-02-11T09:49:56.813Z,1002.98
2023-02-11T09:50:56.803Z,1003.04
2023-02-11T09:51:56.773Z,1003.05
2023-02-11T09:52:56.763Z,1003.12
2023-02-11T09:53:58.723Z,1003.13
2023-02-11T09:54:56.763Z,1003.15
2023-02-11T09:55:56.745Z,1003.20
2023-02-11T09:56:56.744Z,1003.13
2023-02-11T09:57:56.708Z,1003.16
2023-02-11T09:58:56.706Z,1003.13
2023-02-11T09:59:56.733Z,1003.13
2023-02-11T10:00:56.790Z,1003.09
2023-02-11T10:01:56.670Z,1003.16
2023-02-11T10:02:56.707Z,1003.17
2023-02-11T10:03:56.686Z,1003.13
2023-02-11T10:04:56.648Z,1003.14
2023-02-11T10:05:56.626Z,1003.18
2023-02-11T10:06:56.617Z,1003.22
2023-02-11T10:07:56.606Z,1003.23
2023-02-11T10:08:56.608Z,1003.29
2023-02-11T10:09:56.598Z,1003.29
2023-02-11T10:10:56.580Z,1003.26
2023-02-11T10:11:56.565Z,1003.26
2023-02-11T10:12:56.569Z,1003.28
2023-02-11T10:13:56.548Z,1003.29
2023-02-11T10:14:56.558Z,1003.27
2023-02-11T10:15:56.540Z,1003.22
2023-02-11T10:16:56.518Z,1003.25
2023-02-11T10:17:56.517Z,1003.30
2023-02-11T10:18:56.498Z,1003.26
2023-02-11T10:19:56.582Z,1003.22
2023-02-11T10:20:56.501Z,1003.22
2023-02-11T10:21:56.459Z,1003.26
2023-02-11T10:22:56.450Z,1003.32
2023-02-11T10:23:56.444Z,1003.33
2023-02-11T10:24:56.432Z,1003.30
2023-02-11T10:25:56.482Z,1003.32
2023-02-11T10:26:56.409Z,1003.32
2023-02-11T10:27:56.469Z,1003.34
2023-02-11T10:28:56.390Z,1003.36
2023-02-11T10:29:56.372Z,1003.30
2023-02-11T10:30:56.659Z,1003.24
2023-02-11T10:31:58.302Z,1003.30
2023-02-11T10:32:56.359Z,1003.21
2023-02-11T10:33:56.337Z,1003.19
2023-02-11T10:34:56.320Z,1003.22
2023-02-11T10:35:56.319Z,1003.18
2023-02-11T10:36:56.310Z,1003.18
2023-02-11T10:37:56.330Z,1003.15
2023-02-11T10:38:56.284Z,1003.13
2023-02-11T10:39:56.269Z,1003.22
2023-02-11T10:40:56.272Z,1003.27
2023-02-11T10:41:56.273Z,1003.22
2023-02-11T10:42:56.257Z,1003.20
2023-02-11T10:43:56.237Z,1003.18
2023-02-11T10:44:56.240Z,1003.14
2023-02-11T10:45:56.293Z,1003.02
2023-02-11T10:46:56.204Z,1003.03
2023-02-11T10:47:56.191Z,1003.02
2023-02-11T10:48:56.181Z,1003.00
2023-02-11T10:49:56.187Z,1002.96
2023-02-11T10:50:56.163Z,1002.97
2023-02-11T10:51:56.171Z,1002.99
2023-02-11T10:52:56.138Z,1002.95
2023-02-11T10:53:56.122Z,1002.91
2023-02-11T10:54:56.112Z,1002.90
2023-02-11T10:55:56.096Z,1002.88
2023-02-11T10:56:56.092Z,1002.80
2023-02-11T10:57:56.083Z,1002.80
2023-02-11T10:58:56.084Z,1002.76
2023-02-11T10:59:56.059Z,1002.75
2023-02-11T11:00:56.052Z,1002.71
2023-02-11T11:01:56.084Z,1002.66
2023-02-11T11:02:56.040Z,1002.67
2023-02-11T11:03:56.015Z,1002.71
2023-02-11T11:04:56.136Z,1002.63
2023-02-11T11:05:58.177Z,1002.67
2023-02-11T11:06:55.991Z,1002.63
2023-02-11T11:07:55.974Z,1002.61
2023-02-11T11:08:55.989Z,1002.55
2023-02-11T11:09:55.957Z,1002.57
2023-02-11T11:10:55.944Z,1002.61
2023-02-11T11:11:55.934Z,1002.58
2023-02-11T11:12:55.922Z,1002.51
2023-02-11T11:13:55.926Z,1002.55
2023-02-11T11:14:55.906Z,1002.57
2023-02-11T11:15:55.914Z,1002.53
2023-02-11T11:16:55.880Z,1002.56
2023-02-11T11:18:04.687Z,1002.50
2023-02-11T11:18:56.862Z,1002.51
2023-02-11T11:19:55.890Z,1002.56
2023-02-11T11:20:55.858Z,1002.55
2023-02-11T11:21:55.846Z,1002.56
2023-02-11T11:22:55.835Z,1002.54
2023-02-11T11:23:55.804Z,1002.59
2023-02-11T11:24:55.794Z,1002.55
2023-02-11T11:25:55.784Z,1002.63
2023-02-11T11:26:55.790Z,1002.54
2023-02-11T11:27:55.825Z,1002.60
2023-02-11T11:28:55.755Z,1002.61
2023-02-11T11:29:55.763Z,1002.63
2023-02-11T11:30:55.885Z,1002.61
2023-02-11T11:31:55.746Z,1002.63
2023-02-11T11:32:55.715Z,1002.59
2023-02-11T11:33:55.701Z,1002.60
2023-02-11T11:34:55.712Z,1002.51
2023-02-11T11:35:55.681Z,1002.49
2023-02-11T11:36:55.672Z,1002.46
2023-02-11T11:37:55.669Z,1002.44
2023-02-11T11:38:55.650Z,1002.49
2023-02-11T11:39:55.643Z,1002.52
2023-02-11T11:40:55.626Z,1002.48
2023-02-11T11:41:55.623Z,1002.51
2023-02-11T11:42:55.601Z,1002.51
2023-02-11T11:43:55.588Z,1002.52
2023-02-11T11:44:55.591Z,1002.50
2023-02-11T11:45:55.563Z,1002.53
2023-02-11T11:46:55.638Z,1002.48
2023-02-11T11:47:55.558Z,1002.43
2023-02-11T11:48:55.538Z,1002.41
2023-02-11T11:49:55.520Z,1002.43
2023-02-11T11:50:55.530Z,1002.40
2023-02-11T11:51:55.500Z,1002.45
2023-02-11T11:52:55.495Z,1002.44
2023-02-11T11:53:55.480Z,1002.43
2023-02-11T11:54:55.491Z,1002.41
2023-02-11T11:55:57.935Z,1002.46
2023-02-11T11:56:55.444Z,1002.40
2023-02-11T11:57:55.442Z,1002.36
2023-02-11T11:58:55.460Z,1002.48
2023-02-11T11:59:55.426Z,1002.34
2023-02-11T12:00:55.411Z,1002.36
2023-02-11T12:01:55.476Z,1002.42
2023-02-11T12:02:55.464Z,1002.41
2023-02-11T12:03:55.374Z,1002.40
2023-02-11T12:04:55.386Z,1002.34